createdAt,value
2022-09-28T00:01:15.798Z,97998.66
2022-09-28T00:03:42.317Z,97993.69
2022-09-28T00:06:11.687Z,97986.34
2022-09-28T00:08:39.026Z,97993.06
2022-09-28T00:11:08.037Z,97989.47
2022-09-28T00:13:35.338Z,97980.00
2022-09-28T00:16:08.580Z,97983.09
2022-09-28T00:18:36.198Z,97978.13
2022-09-28T00:21:08.683Z,97984.38
2022-09-28T00:23:56.215Z,97989.31
2022-09-28T00:26:23.360Z,97986.44
2022-09-28T00:28:58.791Z,97993.06
2022-09-28T00:31:29.183Z,97994.97
2022-09-28T00:34:00.266Z,97989.72
2022-09-28T00:36:31.407Z,97991.78
2022-09-28T00:38:58.712Z,97996.22
2022-09-28T00:41:27.357Z,97993.66
2022-09-28T00:44:15.109Z,97989.63
2022-09-28T00:46:41.937Z,97984.78
2022-09-28T00:49:15.972Z,97983.84
2022-09-28T00:51:45.599Z,97977.69
2022-09-28T00:54:14.901Z,97971.41
2022-09-28T00:56:44.841Z,97976.84
2022-09-28T00:59:11.395Z,97987.09
2022-09-28T01:01:38.131Z,97995.31
2022-09-28T01:04:06.048Z,97990.34
2022-09-28T01:06:36.096Z,97997.91
2022-09-28T01:09:06.940Z,97999.81
2022-09-28T01:11:36.759Z,97997.34
2022-09-28T01:14:08.638Z,98005.91
2022-09-28T01:16:55.000Z,98016.97
2022-09-28T01:19:43.208Z,98027.00
2022-09-28T01:22:34.257Z,98018.47
2022-09-28T01:25:12.197Z,98016.53
2022-09-28T01:27:41.260Z,98004.50
2022-09-28T01:30:11.792Z,98002.41
2022-09-28T01:32:57.539Z,98000.22
2022-09-28T01:35:34.459Z,98016.25
2022-09-28T01:38:13.374Z,98018.75
2022-09-28T01:40:41.248Z,98008.41
2022-09-28T01:43:19.823Z,98001.25
2022-09-28T01:45:54.298Z,98000.25
2022-09-28T01:48:35.931Z,98001.28
2022-09-28T01:51:08.258Z,97992.88
2022-09-28T01:53:47.420Z,97976.44
2022-09-28T01:56:21.411Z,97978.31
2022-09-28T01:59:02.980Z,97977.88
2022-09-28T02:01:36.193Z,97973.81
2022-09-28T02:04:13.597Z,97979.19
2022-09-28T02:07:20.555Z,97978.28
2022-09-28T02:10:02.147Z,97978.84
2022-09-28T02:12:34.869Z,97976.63
2022-09-28T02:15:17.179Z,97973.41
2022-09-28T02:17:44.252Z,97973.00
2022-09-28T02:20:11.380Z,97974.78
2022-09-28T02:22:44.771Z,97971.03
2022-09-28T02:25:19.435Z,97971.66
2022-09-28T02:28:07.372Z,97981.94
2022-09-28T02:30:37.053Z,97987.78
2022-09-28T02:33:11.019Z,97991.88
2022-09-28T02:35:39.352Z,97986.34
2022-09-28T02:38:05.943Z,97990.25
2022-09-28T02:40:34.792Z,97992.94
2022-09-28T02:43:11.501Z,97986.97
2022-09-28T02:45:54.642Z,97991.00
2022-09-28T02:48:43.167Z,97991.81
2022-09-28T02:51:25.589Z,97996.75
2022-09-28T02:54:06.176Z,98002.59
2022-09-28T02:56:45.636Z,97996.28
2022-09-28T02:59:27.067Z,98000.41
2022-09-28T03:02:21.857Z,97987.06
2022-09-28T03:05:25.987Z,97989.38
2022-09-28T03:07:59.802Z,97995.63
2022-09-28T03:10:32.137Z,97993.59
2022-09-28T03:12:59.424Z,97991.19
2022-09-28T03:15:27.291Z,97996.38
2022-09-28T03:17:54.225Z,97987.47
2022-09-28T03:20:21.026Z,97973.41
2022-09-28T03:23:05.936Z,97965.66
2022-09-28T03:25:32.898Z,97961.03
2022-09-28T03:27:59.385Z,97964.91
2022-09-28T03:30:25.916Z,97953.97
2022-09-28T03:33:00.373Z,97960.72
2022-09-28T03:35:26.968Z,97957.16
2022-09-28T03:37:57.430Z,97962.94
2022-09-28T03:40:24.370Z,97955.50
2022-09-28T03:42:50.994Z,97955.88
2022-09-28T03:45:17.476Z,97951.19
2022-09-28T03:47:48.163Z,97955.09
2022-09-28T03:50:15.185Z,97953.41
2022-09-28T03:52:41.698Z,97957.72
2022-09-28T03:55:08.691Z,97959.97
2022-09-28T03:57:35.279Z,97952.94
2022-09-28T04:00:04.655Z,97940.09
2022-09-28T04:02:31.243Z,97944.03
2022-09-28T04:04:57.804Z,97935.91
2022-09-28T04:07:26.968Z,97944.16
2022-09-28T04:09:56.765Z,97936.75
2022-09-28T04:12:23.288Z,97939.53
2022-09-28T04:14:49.788Z,97932.97
2022-09-28T04:17:16.296Z,97936.16
2022-09-28T04:19:42.793Z,97934.59
2022-09-28T04:22:09.728Z,97926.75
2022-09-28T04:24:36.246Z,97925.09
2022-09-28T04:27:21.595Z,97918.41
2022-09-28T04:29:48.097Z,97920.03
2022-09-28T04:32:14.642Z,97920.44
2022-09-28T04:34:44.094Z,97923.97
2022-09-28T04:37:10.769Z,97924.34
2022-09-28T04:39:37.310Z,97931.28
2022-09-28T04:42:03.821Z,97930.34
2022-09-28T04:44:30.366Z,97931.69
2022-09-28T04:46:57.698Z,97919.78
2022-09-28T04:49:26.300Z,97923.53
2022-09-28T04:51:52.863Z,97922.03
2022-09-28T04:54:19.362Z,97928.66
2022-09-28T04:56:45.892Z,97917.66
2022-09-28T04:59:13.459Z,97914.53
2022-09-28T05:01:40.068Z,97912.50
2022-09-28T05:04:06.666Z,97910.34
2022-09-28T05:06:33.204Z,97907.72
2022-09-28T05:08:59.838Z,97899.44
2022-09-28T05:11:26.622Z,97897.03
2022-09-28T05:13:53.202Z,97910.69
2022-09-28T05:16:20.503Z,97904.91
2022-09-28T05:18:47.410Z,97904.59
2022-09-28T05:21:15.451Z,97898.13
2022-09-28T05:23:46.885Z,97891.47
2022-09-28T05:26:14.252Z,97901.88
2022-09-28T06:02:25.497Z,97860.97
2022-09-28T06:04:52.151Z,97866.69
2022-09-28T06:07:19.016Z,97875.47
2022-09-28T06:09:45.510Z,97871.75
2022-09-28T06:12:12.090Z,97871.50
2022-09-28T06:14:38.990Z,97874.25
2022-09-28T06:17:05.611Z,97865.66
2022-09-28T06:19:32.142Z,97863.28
2022-09-28T06:21:59.465Z,97859.78
2022-09-28T06:24:26.092Z,97859.75
2022-09-28T06:26:52.608Z,97853.09
2022-09-28T06:29:19.749Z,97846.03
2022-09-28T06:31:47.222Z,97858.16
2022-09-28T06:34:13.795Z,97850.34
2022-09-28T06:36:40.922Z,97853.47
2022-09-28T06:39:07.579Z,97856.97
2022-09-28T06:41:34.205Z,97854.56
2022-09-28T06:44:02.031Z,97850.59
2022-09-28T06:46:28.590Z,97848.31
2022-09-28T06:48:55.214Z,97844.44
2022-09-28T06:51:21.915Z,97839.69
2022-09-28T06:53:48.422Z,97832.63
2022-09-28T06:56:15.003Z,97824.78
2022-09-28T06:58:41.470Z,97828.31
2022-09-28T07:01:09.161Z,97820.75
2022-09-28T07:03:35.755Z,97821.03
2022-09-28T07:06:02.721Z,97817.19
2022-09-28T07:08:29.285Z,97815.31
2022-09-28T07:10:58.627Z,97812.97
2022-09-28T07:16:14.981Z,97804.59
2022-09-28T07:18:42.259Z,97809.66
2022-09-28T07:21:14.346Z,97791.97
2022-09-28T07:23:53.837Z,97800.38
2022-09-28T07:26:24.001Z,97785.16
2022-09-28T07:28:51.232Z,97780.91
2022-09-28T07:31:17.837Z,97789.50
2022-09-28T07:33:44.360Z,97780.09
2022-09-28T07:36:10.868Z,97779.31
2022-09-28T07:38:38.287Z,97772.28
2022-09-28T07:41:14.868Z,97774.22
2022-09-28T07:43:41.680Z,97778.53
2022-09-28T07:46:11.942Z,97764.44
2022-09-28T07:48:43.052Z,97759.31
2022-09-28T07:51:10.360Z,97754.63
2022-09-28T07:53:38.427Z,97756.56
2022-09-28T07:56:07.359Z,97754.56
2022-09-28T07:58:36.311Z,97756.09
2022-09-28T08:01:06.431Z,97749.03
2022-09-28T08:03:33.741Z,97755.66
2022-09-28T08:06:02.701Z,97748.19
2022-09-28T08:08:29.945Z,97751.59
2022-09-28T08:10:57.850Z,97740.13
2022-09-28T08:13:27.418Z,97737.50
2022-09-28T08:15:54.938Z,97723.22
2022-09-28T08:18:23.357Z,97724.91
2022-09-28T08:21:11.419Z,97717.41
2022-09-28T08:23:38.427Z,97720.72
2022-09-28T08:26:05.476Z,97732.69
2022-09-28T08:28:32.047Z,97721.47
2022-09-28T08:31:01.521Z,97727.00
2022-09-28T08:33:28.663Z,97714.88
2022-09-28T08:35:57.822Z,97720.78
2022-09-28T08:38:29.556Z,97718.31
2022-09-28T08:41:20.753Z,97716.41
2022-09-28T08:44:03.392Z,97716.94
2022-09-28T08:46:35.818Z,97717.94
2022-09-28T08:49:32.572Z,97713.16
2022-09-28T08:52:11.360Z,97708.00
2022-09-28T08:55:07.397Z,97698.66
2022-09-28T08:57:49.669Z,97688.88
2022-09-28T09:00:39.988Z,97694.59
2022-09-28T09:03:12.235Z,97692.19
2022-09-28T09:05:47.653Z,97690.44
2022-09-28T09:08:51.672Z,97690.66
2022-09-28T09:11:30.501Z,97677.50
2022-09-28T09:14:16.250Z,97684.94
2022-09-28T09:17:10.540Z,97675.97
2022-09-28T09:19:45.927Z,97676.31
2022-09-28T09:22:37.609Z,97664.50
2022-09-28T09:25:21.348Z,97669.72
2022-09-28T09:28:07.926Z,97663.78
2022-09-28T09:30:52.151Z,97672.81
2022-09-28T09:33:31.322Z,97670.53
2022-09-28T09:35:58.373Z,97664.66
2022-09-28T09:38:43.623Z,97665.88
2022-09-28T09:41:36.367Z,97666.59
2022-09-28T09:44:26.753Z,97676.09
2022-09-28T09:47:08.129Z,97664.06
2022-09-28T09:50:05.440Z,97668.34
2022-09-28T09:52:49.315Z,97662.97
2022-09-28T09:55:33.039Z,97673.19
2022-09-28T09:58:10.657Z,97674.28
2022-09-28T10:00:47.931Z,97663.69
2022-09-28T10:03:24.194Z,97658.53
2022-09-28T10:05:58.122Z,97662.38
2022-09-28T10:08:27.004Z,97670.44
2022-09-28T10:11:05.667Z,97667.84
2022-09-28T10:13:34.016Z,97676.59
2022-09-28T10:16:01.333Z,97666.56
2022-09-28T10:18:28.335Z,97661.91
2022-09-28T10:20:54.838Z,97668.41
2022-09-28T10:23:28.099Z,97658.69
2022-09-28T10:26:02.989Z,97669.28
2022-09-28T10:28:39.532Z,97656.50
2022-09-28T10:31:35.436Z,97662.50
2022-09-28T10:34:03.318Z,97665.13
2022-09-28T10:36:38.138Z,97656.47
2022-09-28T10:39:06.169Z,97657.13
2022-09-28T10:41:32.943Z,97655.03
2022-09-28T10:44:06.389Z,97653.81
2022-09-28T10:46:38.947Z,97662.97
2022-09-28T10:49:15.862Z,97653.88
2022-09-28T10:51:56.547Z,97650.97
2022-09-28T10:54:30.161Z,97649.09
2022-09-28T10:56:58.414Z,97653.03
2022-09-28T10:59:37.938Z,97659.53
2022-09-28T11:02:30.340Z,97644.94
2022-09-28T11:05:02.973Z,97654.13
2022-09-28T11:07:32.260Z,97650.25
2022-09-28T11:10:00.863Z,97649.31
2022-09-28T11:12:44.017Z,97655.06
2022-09-28T11:15:18.449Z,97657.09
2022-09-28T11:17:45.022Z,97649.94
2022-09-28T11:20:28.178Z,97642.94
2022-09-28T11:22:58.276Z,97651.03
2022-09-28T11:25:28.289Z,97642.00
2022-09-28T11:27:56.448Z,97632.69
2022-09-28T11:30:38.352Z,97633.31
2022-09-28T11:33:15.395Z,97627.72
2022-09-28T11:35:51.622Z,97615.16
2022-09-28T11:38:55.309Z,97629.47
2022-09-28T11:41:39.334Z,97613.81
2022-09-28T11:44:30.851Z,97614.88
2022-09-28T11:47:30.554Z,97607.09
2022-09-28T11:50:07.696Z,97608.63
2022-09-28T11:52:39.687Z,97592.25
2022-09-28T11:55:06.264Z,97601.50
2022-09-28T11:57:38.264Z,97598.94
2022-09-28T12:00:09.420Z,97603.09
2022-09-28T12:02:44.433Z,97604.44
2022-09-28T12:05:20.688Z,97599.78
2022-09-28T12:07:52.840Z,97570.19
2022-09-28T12:10:45.767Z,97593.00
2022-09-28T12:13:18.778Z,97598.34
2022-09-28T12:18:41.376Z,97605.69
2022-09-28T12:21:18.883Z,97587.28
2022-09-28T12:23:48.668Z,97602.13
2022-09-28T12:26:38.007Z,97594.66
2022-09-28T12:29:15.164Z,97597.91
2022-09-28T12:31:55.954Z,97594.50
2022-09-28T12:34:22.860Z,97592.22
2022-09-28T12:36:58.490Z,97586.81
2022-09-28T12:39:56.968Z,97582.72
2022-09-28T12:42:52.963Z,97580.72
2022-09-28T12:45:28.783Z,97590.94
2022-09-28T12:48:22.418Z,97586.59
2022-09-28T12:51:01.244Z,97587.75
2022-09-28T12:53:43.208Z,97581.56
2022-09-28T12:56:21.544Z,97589.84
2022-09-28T12:58:59.929Z,97581.69
2022-09-28T13:01:52.013Z,97585.41
2022-09-28T13:04:29.674Z,97582.16
2022-09-28T13:07:26.626Z,97586.81
2022-09-28T13:10:06.576Z,97581.38
2022-09-28T13:13:05.323Z,97584.28
2022-09-28T13:15:50.766Z,97591.84
2022-09-28T13:18:31.116Z,97571.22
2022-09-28T13:21:06.580Z,97582.88
2022-09-28T13:23:41.330Z,97577.94
2022-09-28T13:26:13.927Z,97582.44
2022-09-28T13:28:43.102Z,97581.03
2022-09-28T13:31:11.214Z,97576.69
2022-09-28T13:33:44.449Z,97578.59
2022-09-28T13:36:26.325Z,97579.53
2022-09-28T13:38:54.350Z,97579.06
2022-09-28T13:41:29.659Z,97586.16
2022-09-28T13:44:18.024Z,97597.34
2022-09-28T13:47:21.964Z,97590.25
2022-09-28T13:50:17.409Z,97595.16
2022-09-28T13:53:10.149Z,97592.59
2022-09-28T13:56:12.104Z,97613.28
2022-09-28T13:58:55.699Z,97604.28
2022-09-28T14:01:25.056Z,97601.19
2022-09-28T14:03:57.256Z,97602.41
2022-09-28T14:06:32.502Z,97600.00
2022-09-28T14:08:59.233Z,97602.78
2022-09-28T14:11:34.942Z,97598.59
2022-09-28T14:14:14.283Z,97602.50
2022-09-28T14:16:44.340Z,97594.84
2022-09-28T14:19:26.658Z,97591.41
2022-09-28T14:22:09.922Z,97599.47
2022-09-28T14:25:08.861Z,97594.13
2022-09-28T14:27:47.508Z,97591.81
2022-09-28T14:30:14.041Z,97588.66
2022-09-28T14:32:47.694Z,97585.47
2022-09-28T14:35:23.892Z,97594.06
2022-09-28T14:38:13.475Z,97600.06
2022-09-28T14:41:13.352Z,97605.53
2022-09-28T14:43:45.967Z,97611.53
2022-09-28T14:46:12.436Z,97605.78
2022-09-28T14:48:55.105Z,97603.72
2022-09-28T14:51:27.522Z,97600.72
2022-09-28T14:54:00.384Z,97608.97
2022-09-28T14:56:33.473Z,97593.41
2022-09-28T14:59:00.449Z,97598.31
2022-09-28T15:01:27.882Z,97585.31
2022-09-28T15:04:04.616Z,97591.91
2022-09-28T15:06:58.120Z,97597.38
2022-09-28T15:09:42.649Z,97601.13
2022-09-28T15:12:15.942Z,97608.34
2022-09-28T15:14:47.759Z,97597.91
2022-09-28T15:17:21.219Z,97600.09
2022-09-28T15:20:10.998Z,97602.88
2022-09-28T15:22:44.864Z,97598.25
2022-09-28T15:25:20.002Z,97604.00
2022-09-28T15:27:52.616Z,97602.78
2022-09-28T15:30:31.806Z,97619.06
2022-09-28T15:33:19.745Z,97621.69
2022-09-28T15:36:02.907Z,97617.03
2022-09-28T15:38:32.409Z,97621.16
2022-09-28T15:41:02.825Z,97632.28
2022-09-28T15:43:33.150Z,97623.84
2022-09-28T15:46:21.170Z,97631.38
2022-09-28T15:48:53.233Z,97640.91
2022-09-28T15:51:21.415Z,97644.09
2022-09-28T15:54:00.004Z,97643.75
2022-09-28T15:56:28.212Z,97644.75
2022-09-28T15:59:39.399Z,97636.91
2022-09-28T16:02:16.612Z,97631.31
2022-09-28T16:04:51.600Z,97641.78
2022-09-28T16:07:21.051Z,97642.66
2022-09-28T16:09:55.789Z,97638.66
2022-09-28T16:12:24.089Z,97651.34
2022-09-28T16:14:55.882Z,97651.34
2022-09-28T16:17:32.808Z,97649.50
2022-09-28T16:20:18.687Z,97646.06
2022-09-28T16:22:45.567Z,97637.25
2022-09-28T16:25:19.714Z,97637.53
2022-09-28T16:27:46.651Z,97645.28
2022-09-28T16:30:20.339Z,97647.28
2022-09-28T16:32:56.715Z,97652.53
2022-09-28T16:35:26.512Z,97656.16
2022-09-28T16:38:09.169Z,97649.28
2022-09-28T16:40:39.984Z,97647.75
2022-09-28T16:43:08.959Z,97655.03
2022-09-28T16:45:35.491Z,97654.75
2022-09-28T16:48:03.003Z,97651.28
2022-09-28T16:50:29.534Z,97663.56
2022-09-28T16:53:24.706Z,97662.50
2022-09-28T16:55:51.218Z,97669.03
2022-09-28T16:58:18.589Z,97674.94
2022-09-28T17:00:45.839Z,97683.16
2022-09-28T17:03:14.578Z,97684.66
2022-09-28T17:05:41.355Z,97685.88
2022-09-28T17:08:13.564Z,97689.84
2022-09-28T17:11:15.820Z,97692.59
2022-09-28T17:13:42.383Z,97681.53
2022-09-28T17:17:07.799Z,97679.91
2022-09-28T17:19:25.068Z,97677.91
2022-09-28T17:21:52.839Z,97683.09
2022-09-28T17:24:20.470Z,97680.25
2022-09-28T17:26:50.035Z,97685.38
2022-09-28T17:29:16.846Z,97679.84
2022-09-28T17:31:44.846Z,97680.69
2022-09-28T17:34:13.159Z,97683.78
2022-09-28T17:36:41.840Z,97680.03
2022-09-28T17:39:16.848Z,97676.94
2022-09-28T17:41:43.546Z,97679.75
2022-09-28T17:44:10.453Z,97673.88
2022-09-28T17:46:41.524Z,97670.75
2022-09-28T17:49:11.613Z,97678.72
2022-09-28T17:51:38.515Z,97679.91
2022-09-28T17:54:06.846Z,97679.56
2022-09-28T17:56:34.344Z,97687.41
2022-09-28T17:59:06.155Z,97685.94
2022-09-28T18:01:34.689Z,97683.59
2022-09-28T18:04:06.639Z,97689.78
2022-09-28T18:06:37.306Z,97686.88
2022-09-28T18:09:05.209Z,97688.78
2022-09-28T18:11:33.597Z,97698.56
2022-09-28T18:14:00.672Z,97690.91
2022-09-28T18:16:28.684Z,97689.34
2022-09-28T18:18:55.438Z,97693.28
2022-09-28T18:21:21.974Z,97689.69
2022-09-28T18:23:48.467Z,97697.13
2022-09-28T18:26:16.018Z,97695.84
2022-09-28T18:28:42.730Z,97694.38
2022-09-28T18:31:14.772Z,97695.56
2022-09-28T18:33:41.499Z,97690.91
2022-09-28T18:36:08.468Z,97698.84
2022-09-28T18:38:35.892Z,97701.25
2022-09-28T18:41:16.992Z,97714.75
2022-09-28T18:43:49.168Z,97708.41
2022-09-28T18:46:18.063Z,97700.91
2022-09-28T18:48:44.753Z,97715.53
2022-09-28T18:51:12.333Z,97721.84
2022-09-28T18:53:40.068Z,97724.28
2022-09-28T18:56:09.375Z,97721.91
2022-09-28T18:58:37.396Z,97715.59
2022-09-28T19:01:31.384Z,97721.91
2022-09-28T19:04:00.488Z,97716.66
2022-09-28T19:06:27.586Z,97720.97
2022-09-28T19:08:58.463Z,97724.28
2022-09-28T19:11:25.810Z,97725.03
2022-09-28T19:13:54.362Z,97719.50
2022-09-28T19:16:24.219Z,97717.16
2022-09-28T19:18:52.430Z,97714.47
2022-09-28T19:21:19.966Z,97710.94
2022-09-28T19:23:49.151Z,97716.53
2022-09-28T19:26:20.821Z,97721.72
2022-09-28T19:28:48.695Z,97718.50
2022-09-28T19:31:15.917Z,97721.28
2022-09-28T19:33:42.519Z,97718.09
2022-09-28T19:36:15.333Z,97716.09
2022-09-28T19:38:42.250Z,97727.16
2022-09-28T19:41:43.422Z,97721.28
2022-09-28T19:44:27.577Z,97720.78
2022-09-28T19:47:04.766Z,97718.34
2022-09-28T19:49:36.938Z,97723.91
2022-09-28T19:52:13.947Z,97724.28
2022-09-28T19:55:01.066Z,97735.34
2022-09-28T19:57:30.678Z,97748.41
2022-09-28T20:00:02.028Z,97741.22
2022-09-28T20:02:29.666Z,97749.19
2022-09-28T20:04:56.282Z,97749.53
2022-09-28T20:07:22.780Z,97734.81
2022-09-28T20:09:49.297Z,97745.50
2022-09-28T20:12:15.796Z,97747.81
2022-09-28T20:14:42.273Z,97745.03
2022-09-28T20:17:09.652Z,97747.81
2022-09-28T20:19:36.223Z,97747.41
2022-09-28T20:22:03.185Z,97756.47
2022-09-28T20:24:31.233Z,97754.94
2022-09-28T20:26:58.252Z,97764.50
2022-09-28T20:29:24.900Z,97763.03
2022-09-28T20:31:51.983Z,97771.72
2022-09-28T20:34:18.769Z,97764.72
2022-09-28T20:36:45.341Z,97773.84
2022-09-28T20:39:11.998Z,97783.38
2022-09-28T20:41:38.615Z,97780.31
2022-09-28T20:44:06.726Z,97777.53
2022-09-28T20:46:36.833Z,97778.81
2022-09-28T20:49:04.452Z,97779.66
2022-09-28T20:51:31.192Z,97776.22
2022-09-28T20:53:58.854Z,97783.44
2022-09-28T20:56:30.729Z,97783.94
2022-09-28T20:58:57.348Z,97786.63
2022-09-28T21:01:26.722Z,97792.88
2022-09-28T21:03:54.375Z,97797.34
2022-09-28T21:06:22.990Z,97797.72
2022-09-28T21:08:50.135Z,97798.06
2022-09-28T21:11:19.476Z,97798.50
2022-09-28T21:13:47.269Z,97798.19
2022-09-28T21:16:16.224Z,97794.31
2022-09-28T21:18:42.958Z,97792.44
2022-09-28T21:21:12.679Z,97797.88
2022-09-28T21:23:39.700Z,97786.81
2022-09-28T21:26:07.624Z,97794.09
2022-09-28T21:28:34.975Z,97782.84
2022-09-28T21:31:02.935Z,97795.00
2022-09-28T21:33:29.542Z,97792.16
2022-09-28T21:35:56.073Z,97786.41
2022-09-28T21:38:22.622Z,97784.94
2022-09-28T21:40:54.703Z,97778.97
2022-09-28T21:43:21.318Z,97783.34
2022-09-28T21:45:51.984Z,97782.59
2022-09-28T21:48:20.435Z,97792.25
2022-09-28T21:51:05.227Z,97782.03
2022-09-28T21:53:33.981Z,97787.22
2022-09-28T21:56:01.921Z,97787.63
2022-09-28T21:58:31.264Z,97793.22
2022-09-28T22:01:07.903Z,97791.97
2022-09-28T22:03:35.993Z,97787.63
2022-09-28T22:06:04.188Z,97802.69
2022-09-28T22:08:31.138Z,97807.91
2022-09-28T22:11:02.319Z,97799.25
2022-09-28T22:13:30.635Z,97812.25
2022-09-28T22:15:58.805Z,97807.97
2022-09-28T22:18:26.810Z,97812.81
2022-09-28T22:21:07.139Z,97807.63
2022-09-28T22:23:34.441Z,97811.22
2022-09-28T22:26:07.059Z,97807.63
2022-09-28T22:28:34.261Z,97815.47
2022-09-28T22:31:01.105Z,97816.28
2022-09-28T22:33:28.074Z,97819.06
2022-09-28T22:35:55.155Z,97821.81
2022-09-28T22:38:23.724Z,97825.84
2022-09-28T22:40:58.374Z,97821.91
2022-09-28T22:43:26.162Z,97828.22
2022-09-28T22:46:07.389Z,97839.03
2022-09-28T22:48:34.904Z,97842.25
2022-09-28T22:51:02.457Z,97848.03
2022-09-28T22:53:29.631Z,97849.84
2022-09-28T22:55:57.498Z,97846.03
2022-09-28T22:58:24.325Z,97842.56
2022-09-28T23:00:50.959Z,97851.38
2022-09-28T23:03:17.897Z,97853.03
2022-09-28T23:05:55.000Z,97853.06
2022-09-28T23:08:22.684Z,97858.28
2022-09-28T23:10:49.589Z,97859.16
2022-09-28T23:13:16.554Z,97856.47
2022-09-28T23:15:43.242Z,97857.69
2022-09-28T23:18:10.227Z,97865.16
2022-09-28T23:20:36.908Z,97872.63
2022-09-28T23:23:03.424Z,97877.03
2022-09-28T23:25:29.997Z,97881.00
2022-09-28T23:27:56.543Z,97870.81
2022-09-28T23:30:23.765Z,97868.50
2022-09-28T23:32:53.167Z,97878.38
2022-09-28T23:35:19.896Z,97873.66
2022-09-28T23:37:50.471Z,97872.09
2022-09-28T23:40:17.326Z,97874.03
2022-09-28T23:42:43.873Z,97871.75
2022-09-28T23:45:10.578Z,97871.38
2022-09-28T23:47:37.711Z,97879.19
2022-09-28T23:50:07.751Z,97873.66
2022-09-28T23:52:34.997Z,97876.03
2022-09-28T23:55:01.791Z,97874.88
2022-09-28T23:57:28.321Z,97870.19
2022-09-28T23:59:54.830Z,97866.69
